sensor_id;sensor_type;location;lat;lon;timestamp;pressure;altitude;pressure_sealevel;temperature;humidity
33953;BME280;20231;42.710;23.280;2023-02-10T00:01:04;96716.38;;;-0.15;48.47
33953;BME280;20231;42.710;23.280;2023-02-10T00:03:30;96711.75;;;-0.28;48.87
33953;BME280;20231;42.710;23.280;2023-02-10T00:05:56;96712.34;;;-0.56;49.30
33953;BME280;20231;42.710;23.280;2023-02-10T00:08:21;96702.03;;;-0.72;49.69
33953;BME280;20231;42.710;23.280;2023-02-10T00:10:47;96717.59;;;-0.88;50.31
33953;BME280;20231;42.710;23.280;2023-02-10T00:13:12;96710.53;;;-0.56;49.70
33953;BME280;20231;42.710;23.280;2023-02-10T00:15:37;96707.03;;;-0.63;49.51
33953;BME280;20231;42.710;23.280;2023-02-10T00:18:03;96698.88;;;-0.44;49.57
33953;BME280;20231;42.710;23.280;2023-02-10T00:20:28;96697.88;;;-0.43;49.18
33953;BME280;20231;42.710;23.280;2023-02-10T00:22:53;96703.38;;;-0.07;48.45
33953;BME280;20231;42.710;23.280;2023-02-10T00:25:19;96706.88;;;0.07;48.04
33953;BME280;20231;42.710;23.280;2023-02-10T00:27:44;96705.88;;;-0.22;48.34
33953;BME280;20231;42.710;23.280;2023-02-10T00:30:10;96692.47;;;-0.64;49.07
33953;BME280;20231;42.710;23.280;2023-02-10T00:32:36;96693.44;;;-0.65;49.07
33953;BME280;20231;42.710;23.280;2023-02-10T00:35:02;96700.47;;;-0.43;48.66
33953;BME280;20231;42.710;23.280;2023-02-10T00:37:28;96688.38;;;-0.58;49.12
33953;BME280;20231;42.710;23.280;2023-02-10T00:39:53;96695.63;;;-0.46;48.73
33953;BME280;20231;42.710;23.280;2023-02-10T00:42:20;96689.56;;;-0.69;49.64
33953;BME280;20231;42.710;23.280;2023-02-10T00:44:45;96687.38;;;-0.49;48.95
33953;BME280;20231;42.710;23.280;2023-02-10T00:47:11;96673.72;;;-0.81;49.33
33953;BME280;20231;42.710;23.280;2023-02-10T00:49:36;96659.97;;;-0.90;49.51
33953;BME280;20231;42.710;23.280;2023-02-10T00:52:02;96677.06;;;-0.65;49.31
33953;BME280;20231;42.710;23.280;2023-02-10T00:54:27;96673.81;;;-0.59;48.98
33953;BME280;20231;42.710;23.280;2023-02-10T00:56:53;96670.69;;;-1.01;49.74
33953;BME280;20231;42.710;23.280;2023-02-10T00:59:18;96672.88;;;-0.66;49.41
33953;BME280;20231;42.710;23.280;2023-02-10T01:01:45;96673.38;;;-0.71;49.63
33953;BME280;20231;42.710;23.280;2023-02-10T01:04:11;96671.44;;;-0.38;49.15
33953;BME280;20231;42.710;23.280;2023-02-10T01:06:37;96639.56;;;-0.47;49.09
33953;BME280;20231;42.710;23.280;2023-02-10T01:09:02;96650.44;;;-0.51;49.01
33953;BME280;20231;42.710;23.280;2023-02-10T01:11:28;96663.78;;;-0.70;49.43
33953;BME280;20231;42.710;23.280;2023-02-10T01:13:53;96663.28;;;-0.58;49.28
33953;BME280;20231;42.710;23.280;2023-02-10T01:16:19;96670.19;;;-0.42;49.02
33953;BME280;20231;42.710;23.280;2023-02-10T01:18:45;96658.56;;;-0.54;49.21
33953;BME280;20231;42.710;23.280;2023-02-10T01:21:13;96665.25;;;-0.68;49.30
33953;BME280;20231;42.710;23.280;2023-02-10T01:23:39;96658.19;;;-0.81;49.85
33953;BME280;20231;42.710;23.280;2023-02-10T01:26:04;96643.66;;;-0.98;49.87
33953;BME280;20231;42.710;23.280;2023-02-10T01:28:30;96654.75;;;-0.74;49.24
33953;BME280;20231;42.710;23.280;2023-02-10T01:30:56;96661.91;;;-0.38;48.60
33953;BME280;20231;42.710;23.280;2023-02-10T01:33:21;96641.81;;;-0.82;49.31
33953;BME280;20231;42.710;23.280;2023-02-10T01:35:46;96656.31;;;-0.65;49.25
33953;BME280;20231;42.710;23.280;2023-02-10T01:38:12;96647.94;;;-0.75;49.10
33953;BME280;20231;42.710;23.280;2023-02-10T01:40:37;96646.00;;;-0.73;49.12
33953;BME280;20231;42.710;23.280;2023-02-10T01:43:12;96659.56;;;-0.63;49.19
33953;BME280;20231;42.710;23.280;2023-02-10T01:45:38;96652.91;;;-1.04;49.84
33953;BME280;20231;42.710;23.280;2023-02-10T01:48:04;96646.47;;;-1.24;50.27
33953;BME280;20231;42.710;23.280;2023-02-10T01:50:35;96633.38;;;-1.30;50.28
33953;BME280;20231;42.710;23.280;2023-02-10T01:53:03;96627.88;;;-1.19;49.93
33953;BME280;20231;42.710;23.280;2023-02-10T01:55:32;96631.13;;;-1.25;50.01
33953;BME280;20231;42.710;23.280;2023-02-10T01:58:03;96624.97;;;-1.32;50.22
33953;BME280;20231;42.710;23.280;2023-02-10T02:00:30;96615.09;;;-1.37;49.93
33953;BME280;20231;42.710;23.280;2023-02-10T02:02:55;96609.63;;;-1.57;50.20
33953;BME280;20231;42.710;23.280;2023-02-10T02:05:29;96626.25;;;-1.36;50.14
33953;BME280;20231;42.710;23.280;2023-02-10T02:07:58;96619.63;;;-1.31;49.62
33953;BME280;20231;42.710;23.280;2023-02-10T02:10:32;96595.84;;;-1.34;49.71
33953;BME280;20231;42.710;23.280;2023-02-10T02:13:06;96610.59;;;-1.50;49.57
33953;BME280;20231;42.710;23.280;2023-02-10T02:23:48;96619.44;;;-1.13;48.84
33953;BME280;20231;42.710;23.280;2023-02-10T02:26:42;96611.25;;;-1.56;49.79
33953;BME280;20231;42.710;23.280;2023-02-10T02:32:00;96614.63;;;-1.32;49.37
33953;BME280;20231;42.710;23.280;2023-02-10T02:34:42;96604.28;;;-1.48;49.41
33953;BME280;20231;42.710;23.280;2023-02-10T02:39:48;96618.72;;;-1.53;49.86
33953;BME280;20231;42.710;23.280;2023-02-10T02:42:16;96611.56;;;-1.51;50.03
33953;BME280;20231;42.710;23.280;2023-02-10T02:44:45;96601.91;;;-1.73;49.93
33953;BME280;20231;42.710;23.280;2023-02-10T02:52:22;96607.72;;;-2.03;50.96
33953;BME280;20231;42.710;23.280;2023-02-10T02:54:53;96608.22;;;-2.00;51.17
33953;BME280;20231;42.710;23.280;2023-02-10T02:57:36;96597.34;;;-2.19;51.15
33953;BME280;20231;42.710;23.280;2023-02-10T03:00:11;96606.41;;;-2.07;50.80
33953;BME280;20231;42.710;23.280;2023-02-10T03:02:40;96588.47;;;-2.09;50.70
33953;BME280;20231;42.710;23.280;2023-02-10T03:05:10;96593.66;;;-2.01;50.58
33953;BME280;20231;42.710;23.280;2023-02-10T03:07:35;96584.13;;;-1.92;50.34
33953;BME280;20231;42.710;23.280;2023-02-10T03:10:02;96583.97;;;-2.07;51.00
33953;BME280;20231;42.710;23.280;2023-02-10T03:12:27;96605.31;;;-1.89;51.17
33953;BME280;20231;42.710;23.280;2023-02-10T03:14:53;96598.19;;;-1.87;50.87
33953;BME280;20231;42.710;23.280;2023-02-10T03:17:18;96613.72;;;-1.95;50.74
33953;BME280;20231;42.710;23.280;2023-02-10T03:19:43;96609.34;;;-1.86;50.88
33953;BME280;20231;42.710;23.280;2023-02-10T03:22:09;96614.84;;;-1.89;51.04
33953;BME280;20231;42.710;23.280;2023-02-10T03:24:34;96609.50;;;-1.96;50.91
33953;BME280;20231;42.710;23.280;2023-02-10T03:26:59;96592.53;;;-2.06;51.36
33953;BME280;20231;42.710;23.280;2023-02-10T03:29:25;96611.44;;;-1.98;51.26
33953;BME280;20231;42.710;23.280;2023-02-10T03:31:50;96607.72;;;-1.87;50.83
33953;BME280;20231;42.710;23.280;2023-02-10T03:34:16;96615.31;;;-1.78;50.55
33953;BME280;20231;42.710;23.280;2023-02-10T03:36:41;96597.69;;;-1.74;50.44
33953;BME280;20231;42.710;23.280;2023-02-10T03:39:06;96616.13;;;-1.77;50.39
33953;BME280;20231;42.710;23.280;2023-02-10T03:41:32;96601.25;;;-1.91;50.33
33953;BME280;20231;42.710;23.280;2023-02-10T03:43:57;96596.25;;;-2.09;50.67
33953;BME280;20231;42.710;23.280;2023-02-10T03:46:23;96586.69;;;-2.24;50.95
33953;BME280;20231;42.710;23.280;2023-02-10T03:48:48;96578.63;;;-2.29;51.18
33953;BME280;20231;42.710;23.280;2023-02-10T03:51:14;96587.03;;;-2.19;51.22
33953;BME280;20231;42.710;23.280;2023-02-10T03:53:40;96576.69;;;-2.19;51.01
33953;BME280;20231;42.710;23.280;2023-02-10T03:56:05;96572.00;;;-2.15;51.05
33953;BME280;20231;42.710;23.280;2023-02-10T03:58:31;96572.81;;;-2.07;50.75
33953;BME280;20231;42.710;23.280;2023-02-10T04:00:56;96579.91;;;-2.25;51.30
33953;BME280;20231;42.710;23.280;2023-02-10T04:03:22;96573.13;;;-2.26;50.98
33953;BME280;20231;42.710;23.280;2023-02-10T04:05:47;96564.59;;;-2.18;50.57
33953;BME280;20231;42.710;23.280;2023-02-10T04:08:12;96571.50;;;-2.35;50.85
33953;BME280;20231;42.710;23.280;2023-02-10T04:10:38;96586.69;;;-2.24;50.86
33953;BME280;20231;42.710;23.280;2023-02-10T04:13:04;96581.50;;;-2.32;50.98
33953;BME280;20231;42.710;23.280;2023-02-10T04:15:29;96577.97;;;-2.31;50.94
33953;BME280;20231;42.710;23.280;2023-02-10T04:17:54;96572.66;;;-2.37;50.93
33953;BME280;20231;42.710;23.280;2023-02-10T04:20:22;96564.22;;;-2.39;51.09
33953;BME280;20231;42.710;23.280;2023-02-10T04:22:48;96576.38;;;-2.16;50.65
33953;BME280;20231;42.710;23.280;2023-02-10T04:25:13;96586.72;;;-2.08;50.65
33953;BME280;20231;42.710;23.280;2023-02-10T04:27:39;96585.72;;;-2.07;50.52
33953;BME280;20231;42.710;23.280;2023-02-10T04:30:04;96580.75;;;-2.01;50.58
33953;BME280;20231;42.710;23.280;2023-02-10T04:32:30;96587.03;;;-1.95;50.31
33953;BME280;20231;42.710;23.280;2023-02-10T04:34:55;96582.03;;;-1.97;50.46
33953;BME280;20231;42.710;23.280;2023-02-10T04:37:21;96574.09;;;-1.95;50.18
33953;BME280;20231;42.710;23.280;2023-02-10T04:39:46;96583.94;;;-2.22;51.04
33953;BME280;20231;42.710;23.280;2023-02-10T04:42:11;96585.22;;;-2.34;51.62
33953;BME280;20231;42.710;23.280;2023-02-10T04:44:37;96578.94;;;-2.32;51.09
33953;BME280;20231;42.710;23.280;2023-02-10T04:47:02;96582.34;;;-2.15;50.78
33953;BME280;20231;42.710;23.280;2023-02-10T04:49:28;96591.06;;;-2.16;51.25
33953;BME280;20231;42.710;23.280;2023-02-10T04:51:53;96590.09;;;-2.15;50.95
33953;BME280;20231;42.710;23.280;2023-02-10T04:54:19;96582.81;;;-2.28;51.16
33953;BME280;20231;42.710;23.280;2023-02-10T04:56:45;96591.88;;;-2.24;51.00
33953;BME280;20231;42.710;23.280;2023-02-10T04:59:11;96586.53;;;-2.30;51.04
33953;BME280;20231;42.710;23.280;2023-02-10T05:01:36;96596.66;;;-2.45;51.54
33953;BME280;20231;42.710;23.280;2023-02-10T05:04:02;96603.81;;;-2.31;51.14
33953;BME280;20231;42.710;23.280;2023-02-10T05:06:27;96596.66;;;-2.45;51.07
33953;BME280;20231;42.710;23.280;2023-02-10T05:08:53;96597.59;;;-2.62;51.56
33953;BME280;20231;42.710;23.280;2023-02-10T05:11:18;96605.91;;;-2.42;51.49
33953;BME280;20231;42.710;23.280;2023-02-10T05:13:44;96593.81;;;-2.34;51.18
33953;BME280;20231;42.710;23.280;2023-02-10T05:16:11;96595.75;;;-2.20;51.22
33953;BME280;20231;42.710;23.280;2023-02-10T05:18:37;96614.16;;;-2.39;51.56
33953;BME280;20231;42.710;23.280;2023-02-10T05:21:05;96617.69;;;-2.32;51.82
33953;BME280;20231;42.710;23.280;2023-02-10T05:23:32;96614.97;;;-2.30;51.47
33953;BME280;20231;42.710;23.280;2023-02-10T05:25:58;96630.75;;;-2.41;51.49
33953;BME280;20231;42.710;23.280;2023-02-10T05:28:23;96635.72;;;-2.64;51.84
33953;BME280;20231;42.710;23.280;2023-02-10T05:30:49;96632.44;;;-2.74;52.43
33953;BME280;20231;42.710;23.280;2023-02-10T05:33:14;96630.31;;;-2.78;52.25
33953;BME280;20231;42.710;23.280;2023-02-10T05:35:40;96632.78;;;-2.69;52.38
33953;BME280;20231;42.710;23.280;2023-02-10T05:38:06;96629.34;;;-2.77;52.06
33953;BME280;20231;42.710;23.280;2023-02-10T05:40:31;96638.56;;;-2.83;51.82
33953;BME280;20231;42.710;23.280;2023-02-10T05:42:57;96643.09;;;-2.69;51.71
33953;BME280;20231;42.710;23.280;2023-02-10T05:45:23;96649.38;;;-2.79;51.84
33953;BME280;20231;42.710;23.280;2023-02-10T05:47:48;96650.09;;;-2.53;51.41
33953;BME280;20231;42.710;23.280;2023-02-10T05:50:14;96658.59;;;-2.77;51.52
33953;BME280;20231;42.710;23.280;2023-02-10T05:52:40;96659.22;;;-2.83;51.72
33953;BME280;20231;42.710;23.280;2023-02-10T05:55:06;96663.72;;;-2.84;51.83
33953;BME280;20231;42.710;23.280;2023-02-10T05:57:32;96655.13;;;-2.85;51.89
33953;BME280;20231;42.710;23.280;2023-02-10T05:59:57;96647.22;;;-2.91;51.82
33953;BME280;20231;42.710;23.280;2023-02-10T06:02:23;96655.25;;;-3.02;52.12
33953;BME280;20231;42.710;23.280;2023-02-10T06:04:48;96653.47;;;-2.61;51.37
33953;BME280;20231;42.710;23.280;2023-02-10T06:07:14;96656.66;;;-2.25;50.45
33953;BME280;20231;42.710;23.280;2023-02-10T06:09:41;96660.94;;;-2.50;50.89
33953;BME280;20231;42.710;23.280;2023-02-10T06:12:06;96664.03;;;-2.80;51.73
33953;BME280;20231;42.710;23.280;2023-02-10T06:14:32;96671.00;;;-2.72;51.86
33953;BME280;20231;42.710;23.280;2023-02-10T06:16:57;96663.13;;;-2.71;52.01
33953;BME280;20231;42.710;23.280;2023-02-10T06:19:23;96670.13;;;-2.47;51.60
33953;BME280;20231;42.710;23.280;2023-02-10T06:21:48;96659.00;;;-2.48;51.47
33953;BME280;20231;42.710;23.280;2023-02-10T06:24:14;96664.34;;;-2.49;51.34
33953;BME280;20231;42.710;23.280;2023-02-10T06:26:39;96683.47;;;-2.18;51.28
33953;BME280;20231;42.710;23.280;2023-02-10T06:29:05;96687.84;;;-2.11;51.06
33953;BME280;20231;42.710;23.280;2023-02-10T06:31:30;96689.78;;;-2.05;51.07
33953;BME280;20231;42.710;23.280;2023-02-10T06:33:56;96684.78;;;-2.07;51.20
33953;BME280;20231;42.710;23.280;2023-02-10T06:36:21;96683.78;;;-2.21;51.54
33953;BME280;20231;42.710;23.280;2023-02-10T06:38:47;96690.75;;;-2.14;51.40
33953;BME280;20231;42.710;23.280;2023-02-10T06:41:13;96699.00;;;-2.18;51.89
33953;BME280;20231;42.710;23.280;2023-02-10T06:43:38;96690.63;;;-1.97;51.47
33953;BME280;20231;42.710;23.280;2023-02-10T06:46:04;96693.66;;;-2.01;51.53
33953;BME280;20231;42.710;23.280;2023-02-10T06:48:29;96683.06;;;-1.74;51.26
33953;BME280;20231;42.710;23.280;2023-02-10T06:50:55;96679.31;;;-1.96;51.44
33953;BME280;20231;42.710;23.280;2023-02-10T06:53:20;96692.44;;;-1.65;50.87
33953;BME280;20231;42.710;23.280;2023-02-10T06:55:46;96683.88;;;-1.82;51.19
33953;BME280;20231;42.710;23.280;2023-02-10T06:58:11;96692.41;;;-1.81;51.56
33953;BME280;20231;42.710;23.280;2023-02-10T07:00:37;96712.34;;;-1.50;51.15
33953;BME280;20231;42.710;23.280;2023-02-10T07:03:03;96704.09;;;-1.22;50.65
33953;BME280;20231;42.710;23.280;2023-02-10T07:05:28;96695.16;;;-1.35;50.13
33953;BME280;20231;42.710;23.280;2023-02-10T07:07:54;96705.50;;;-1.03;49.82
33953;BME280;20231;42.710;23.280;2023-02-10T07:10:20;96694.69;;;-1.54;50.35
33953;BME280;20231;42.710;23.280;2023-02-10T07:12:46;96697.13;;;-1.53;50.74
33953;BME280;20231;42.710;23.280;2023-02-10T07:15:15;96688.38;;;-1.36;50.49
33953;BME280;20231;42.710;23.280;2023-02-10T07:17:43;96677.84;;;-1.11;49.69
33953;BME280;20231;42.710;23.280;2023-02-10T07:20:08;96688.44;;;-0.82;49.49
33953;BME280;20231;42.710;23.280;2023-02-10T07:22:34;96679.28;;;-1.08;49.83
33953;BME280;20231;42.710;23.280;2023-02-10T07:24:59;96691.09;;;-1.06;50.02
33953;BME280;20231;42.710;23.280;2023-02-10T07:27:25;96688.50;;;-1.14;50.20
33953;BME280;20231;42.710;23.280;2023-02-10T07:29:50;96688.22;;;-1.35;50.13
33953;BME280;20231;42.710;23.280;2023-02-10T07:32:15;96674.47;;;-1.35;50.33
33953;BME280;20231;42.710;23.280;2023-02-10T07:34:41;96681.41;;;-1.04;49.86
33953;BME280;20231;42.710;23.280;2023-02-10T07:37:07;96699.66;;;-0.89;49.63
33953;BME280;20231;42.710;23.280;2023-02-10T07:39:33;96695.94;;;-0.95;49.75
33953;BME280;20231;42.710;23.280;2023-02-10T07:41:58;96686.03;;;-0.91;49.47
33953;BME280;20231;42.710;23.280;2023-02-10T07:44:24;96693.78;;;-0.75;48.73
33953;BME280;20231;42.710;23.280;2023-02-10T07:46:53;96690.00;;;-1.19;49.52
33953;BME280;20231;42.710;23.280;2023-02-10T07:49:18;96692.84;;;-0.82;49.14
33953;BME280;20231;42.710;23.280;2023-02-10T07:51:44;96681.81;;;-0.84;49.12
33953;BME280;20231;42.710;23.280;2023-02-10T07:54:10;96689.38;;;-0.67;48.73
33953;BME280;20231;42.710;23.280;2023-02-10T07:56:35;96684.97;;;-0.59;48.23
33953;BME280;20231;42.710;23.280;2023-02-10T07:59:01;96682.00;;;-0.40;47.67
33953;BME280;20231;42.710;23.280;2023-02-10T08:01:26;96685.94;;;-0.60;47.78
33953;BME280;20231;42.710;23.280;2023-02-10T08:03:51;96702.28;;;-0.51;47.65
33953;BME280;20231;42.710;23.280;2023-02-10T08:06:21;96707.81;;;-0.54;47.78
33953;BME280;20231;42.710;23.280;2023-02-10T08:08:47;96702.94;;;-0.49;47.32
33953;BME280;20231;42.710;23.280;2023-02-10T08:11:13;96683.84;;;-0.64;47.78
33953;BME280;20231;42.710;23.280;2023-02-10T08:13:39;96682.31;;;-0.81;48.46
33953;BME280;20231;42.710;23.280;2023-02-10T08:16:05;96692.59;;;-0.65;48.06
33953;BME280;20231;42.710;23.280;2023-02-10T08:18:35;96687.28;;;-0.64;47.95
33953;BME280;20231;42.710;23.280;2023-02-10T08:21:01;96668.63;;;-0.29;47.33
33953;BME280;20231;42.710;23.280;2023-02-10T08:23:27;96693.28;;;-0.03;46.89
33953;BME280;20231;42.710;23.280;2023-02-10T08:25:52;96674.78;;;-0.22;47.18
33953;BME280;20231;42.710;23.280;2023-02-10T08:28:18;96668.81;;;-0.30;46.95
33953;BME280;20231;42.710;23.280;2023-02-10T08:30:43;96683.22;;;0.02;46.74
33953;BME280;20231;42.710;23.280;2023-02-10T08:33:09;96681.69;;;0.16;46.51
33953;BME280;20231;42.710;23.280;2023-02-10T08:35:36;96682.09;;;0.05;46.80
33953;BME280;20231;42.710;23.280;2023-02-10T08:38:02;96693.91;;;0.07;46.76
33953;BME280;20231;42.710;23.280;2023-02-10T08:40:28;96686.41;;;0.12;46.52
33953;BME280;20231;42.710;23.280;2023-02-10T08:42:53;96686.47;;;0.49;45.93
33953;BME280;20231;42.710;23.280;2023-02-10T08:45:19;96680.00;;;0.68;45.74
33953;BME280;20231;42.710;23.280;2023-02-10T08:47:44;96686.22;;;0.95;45.25
33953;BME280;20231;42.710;23.280;2023-02-10T08:50:10;96680.94;;;1.03;44.67
33953;BME280;20231;42.710;23.280;2023-02-10T08:52:35;96684.53;;;1.02;44.54
33953;BME280;20231;42.710;23.280;2023-02-10T08:55:01;96674.22;;;1.09;44.17
33953;BME280;20231;42.710;23.280;2023-02-10T08:57:27;96692.91;;;1.27;44.01
33953;BME280;20231;42.710;23.280;2023-02-10T08:59:52;96682.84;;;1.24;44.04
33953;BME280;20231;42.710;23.280;2023-02-10T09:02:18;96666.78;;;1.20;43.90
33953;BME280;20231;42.710;23.280;2023-02-10T09:04:43;96673.63;;;1.36;43.46
33953;BME280;20231;42.710;23.280;2023-02-10T09:07:09;96662.56;;;1.34;43.37
33953;BME280;20231;42.710;23.280;2023-02-10T09:09:38;96671.56;;;1.45;43.08
33953;BME280;20231;42.710;23.280;2023-02-10T09:12:05;96671.56;;;1.45;43.35
33953;BME280;20231;42.710;23.280;2023-02-10T09:14:30;96636.97;;;1.31;42.95
33953;BME280;20231;42.710;23.280;2023-02-10T09:16:56;96656.56;;;1.47;43.02
33953;BME280;20231;42.710;23.280;2023-02-10T09:19:21;96655.84;;;1.53;42.73
33953;BME280;20231;42.710;23.280;2023-02-10T09:21:49;96639.50;;;1.59;42.35
33953;BME280;20231;42.710;23.280;2023-02-10T09:24:15;96664.78;;;1.80;42.48
33953;BME280;20231;42.710;23.280;2023-02-10T09:26:41;96652.41;;;1.82;42.62
33953;BME280;20231;42.710;23.280;2023-02-10T09:29:06;96658.19;;;1.98;42.41
33953;BME280;20231;42.710;23.280;2023-02-10T09:31:33;96657.84;;;2.01;42.45
33953;BME280;20231;42.710;23.280;2023-02-10T09:33:59;96656.97;;;2.15;42.29
33953;BME280;20231;42.710;23.280;2023-02-10T09:36:24;96645.75;;;2.14;42.16
33953;BME280;20231;42.710;23.280;2023-02-10T09:38:50;96639.25;;;2.25;41.83
33953;BME280;20231;42.710;23.280;2023-02-10T09:44:21;96639.69;;;2.28;41.47
33953;BME280;20231;42.710;23.280;2023-02-10T09:46:59;96652.44;;;2.44;41.50
33953;BME280;20231;42.710;23.280;2023-02-10T09:54:47;96627.78;;;2.19;41.55
33953;BME280;20231;42.710;23.280;2023-02-10T09:57:16;96629.53;;;2.33;41.17
33953;BME280;20231;42.710;23.280;2023-02-10T09:59:45;96624.00;;;2.43;41.34
33953;BME280;20231;42.710;23.280;2023-02-10T10:02:16;96632.53;;;2.58;41.59
33953;BME280;20231;42.710;23.280;2023-02-10T10:04:44;96624.34;;;2.61;41.38
33953;BME280;20231;42.710;23.280;2023-02-10T10:07:31;96620.03;;;2.74;41.50
33953;BME280;20231;42.710;23.280;2023-02-10T10:12:45;96612.84;;;4.03;76.47
33953;BME280;20231;42.710;23.280;2023-02-10T10:15:15;96609.13;;;4.64;71.67
33953;BME280;20231;42.710;23.280;2023-02-10T10:17:48;96617.31;;;5.19;69.78
33953;BME280;20231;42.710;23.280;2023-02-10T10:23:27;96607.13;;;4.46;42.91
33953;BME280;20231;42.710;23.280;2023-02-10T10:31:27;96591.63;;;4.32;39.00
33953;BME280;20231;42.710;23.280;2023-02-10T10:34:09;96583.72;;;3.93;39.19
33953;BME280;20231;42.710;23.280;2023-02-10T10:36:40;96585.34;;;4.14;39.65
33953;BME280;20231;42.710;23.280;2023-02-10T10:39:14;96582.56;;;4.15;38.18
33953;BME280;20231;42.710;23.280;2023-02-10T10:41:43;96572.09;;;4.02;38.37
33953;BME280;20231;42.710;23.280;2023-02-10T10:44:12;96576.09;;;3.92;38.74
33953;BME280;20231;42.710;23.280;2023-02-10T10:46:46;96575.50;;;4.03;38.80
33953;BME280;20231;42.710;23.280;2023-02-10T10:49:12;96571.09;;;4.16;38.15
33953;BME280;20231;42.710;23.280;2023-02-10T10:51:37;96569.31;;;4.23;38.06
33953;BME280;20231;42.710;23.280;2023-02-10T10:54:05;96568.72;;;4.27;38.44
33953;BME280;20231;42.710;23.280;2023-02-10T10:56:47;96566.91;;;4.47;37.70
33953;BME280;20231;42.710;23.280;2023-02-10T10:59:18;96555.25;;;4.43;37.28
33953;BME280;20231;42.710;23.280;2023-02-10T11:01:47;96550.63;;;4.58;37.14
33953;BME280;20231;42.710;23.280;2023-02-10T11:04:21;96557.44;;;4.66;37.17
33953;BME280;20231;42.710;23.280;2023-02-10T11:06:52;96553.25;;;4.65;37.12
33953;BME280;20231;42.710;23.280;2023-02-10T11:11:47;96559.28;;;4.46;36.84
33953;BME280;20231;42.710;23.280;2023-02-10T11:14:15;96552.38;;;3.87;37.43
33953;BME280;20231;42.710;23.280;2023-02-10T11:16:48;96535.94;;;3.93;37.89
33953;BME280;20231;42.710;23.280;2023-02-10T11:19:21;96546.00;;;4.15;38.42
33953;BME280;20231;42.710;23.280;2023-02-10T11:21:46;96524.31;;;4.21;38.41
33953;BME280;20231;42.710;23.280;2023-02-10T11:24:24;96537.97;;;4.55;37.41
33953;BME280;20231;42.710;23.280;2023-02-10T11:27:04;96521.66;;;4.79;37.30
33953;BME280;20231;42.710;23.280;2023-02-10T11:29:33;96523.78;;;5.08;37.28
33953;BME280;20231;42.710;23.280;2023-02-10T11:31:59;96520.50;;;5.25;36.83
33953;BME280;20231;42.710;23.280;2023-02-10T11:34:31;96516.41;;;5.42;35.91
33953;BME280;20231;42.710;23.280;2023-02-10T11:36:59;96516.84;;;5.33;35.77
33953;BME280;20231;42.710;23.280;2023-02-10T11:39:36;96505.31;;;5.47;35.91
33953;BME280;20231;42.710;23.280;2023-02-10T11:42:26;96513.94;;;5.54;35.89
33953;BME280;20231;42.710;23.280;2023-02-10T11:47:19;96504.31;;;5.48;35.86
33953;BME280;20231;42.710;23.280;2023-02-10T11:49:47;96507.38;;;5.75;35.81
33953;BME280;20231;42.710;23.280;2023-02-10T11:52:15;96503.09;;;5.87;35.64
33953;BME280;20231;42.710;23.280;2023-02-10T11:54:42;96500.09;;;5.47;35.30
33953;BME280;20231;42.710;23.280;2023-02-10T11:57:30;96510.78;;;5.82;35.29
33953;BME280;20231;42.710;23.280;2023-02-10T12:00:25;96507.13;;;5.90;35.28
33953;BME280;20231;42.710;23.280;2023-02-10T12:06:01;96485.56;;;6.19;35.27
33953;BME280;20231;42.710;23.280;2023-02-10T12:19:50;96470.69;;;6.37;34.80
33953;BME280;20231;42.710;23.280;2023-02-10T12:25:14;96445.44;;;6.42;35.13
33953;BME280;20231;42.710;23.280;2023-02-10T12:28:00;96454.41;;;6.53;35.21
33953;BME280;20231;42.710;23.280;2023-02-10T12:30:45;96465.84;;;6.76;34.80
33953;BME280;20231;42.710;23.280;2023-02-10T12:39:13;96459.75;;;7.18;33.91
33953;BME280;20231;42.710;23.280;2023-02-10T12:48:25;96450.47;;;7.33;34.27
33953;BME280;20231;42.710;23.280;2023-02-10T12:53:49;96447.09;;;7.44;34.36
33953;BME280;20231;42.710;23.280;2023-02-10T12:56:35;96443.69;;;7.44;34.72
33953;BME280;20231;42.710;23.280;2023-02-10T12:59:38;96449.75;;;7.26;34.73
33953;BME280;20231;42.710;23.280;2023-02-10T13:02:14;96455.72;;;7.33;35.22
33953;BME280;20231;42.710;23.280;2023-02-10T13:04:47;96448.13;;;7.43;35.12
33953;BME280;20231;42.710;23.280;2023-02-10T13:07:29;96444.47;;;7.44;34.86
33953;BME280;20231;42.710;23.280;2023-02-10T13:12:35;96451.75;;;7.72;34.31
33953;BME280;20231;42.710;23.280;2023-02-10T13:15:14;96454.75;;;7.75;34.50
33953;BME280;20231;42.710;23.280;2023-02-10T13:17:43;96441.44;;;7.59;34.98
33953;BME280;20231;42.710;23.280;2023-02-10T13:26:22;96453.13;;;7.63;34.67
33953;BME280;20231;42.710;23.280;2023-02-10T13:29:13;96449.25;;;7.65;34.56
33953;BME280;20231;42.710;23.280;2023-02-10T13:32:24;96452.22;;;7.69;35.01
33953;BME280;20231;42.710;23.280;2023-02-10T13:34:54;96441.50;;;7.81;34.82
33953;BME280;20231;42.710;23.280;2023-02-10T13:37:39;96448.53;;;7.99;34.46
33953;BME280;20231;42.710;23.280;2023-02-10T13:43:30;96451.75;;;8.01;34.28
33953;BME280;20231;42.710;23.280;2023-02-10T13:45:58;96431.28;;;8.03;34.04
33953;BME280;20231;42.710;23.280;2023-02-10T13:48:28;96438.59;;;8.01;34.74
33953;BME280;20231;42.710;23.280;2023-02-10T13:51:05;96435.84;;;8.07;34.04
33953;BME280;20231;42.710;23.280;2023-02-10T13:58:58;96443.03;;;8.00;34.49
33953;BME280;20231;42.710;23.280;2023-02-10T14:01:48;96446.25;;;8.02;34.32
33953;BME280;20231;42.710;23.280;2023-02-10T14:06:45;96443.66;;;8.14;33.87
33953;BME280;20231;42.710;23.280;2023-02-10T14:11:48;96436.94;;;8.29;33.94
33953;BME280;20231;42.710;23.280;2023-02-10T14:16:42;96437.84;;;8.35;33.39
33953;BME280;20231;42.710;23.280;2023-02-10T14:19:29;96428.72;;;8.37;33.21
33953;BME280;20231;42.710;23.280;2023-02-10T14:21:56;96429.06;;;8.41;33.30
33953;BME280;20231;42.710;23.280;2023-02-10T14:24:26;96432.38;;;8.48;33.01
33953;BME280;20231;42.710;23.280;2023-02-10T14:26:53;96434.09;;;8.53;33.10
33953;BME280;20231;42.710;23.280;2023-02-10T14:29:22;96438.66;;;8.58;32.94
33953;BME280;20231;42.710;23.280;2023-02-10T14:31:51;96437.31;;;8.55;33.05
33953;BME280;20231;42.710;23.280;2023-02-10T14:34:27;96428.72;;;8.49;32.80
33953;BME280;20231;42.710;23.280;2023-02-10T14:36:58;96429.88;;;8.52;32.64
33953;BME280;20231;42.710;23.280;2023-02-10T14:39:26;96422.31;;;8.56;32.52